Asiatic Orchid — 9V3925 — position and weather

sailwx.info

Track history (hours):
 
Tides and Currents Weather Stations Pressure Air Temp Water Temp Dewpoint Dewpoint Depression Visibility Wind Speed Wind Dir Waves Ship Positions

Asiatic Orchid

Last reported at 2017-Dec-12 21:44 UTC. Time now 2017-Dec-15 12:12 UTC.
Position N 31°49' E 034°39'.

Length 149 m; draft 8.2 m.

Type: Ship (hazmat cat A). MMSI: 565852000.

Date/timePositionNaut miles runAvg speedWind from/ knotsBaromVisibWave heightAir tempDewpointWater temp
2017-Dec-12 21:44N 31°49' E 034°39'0 0.0
2017-Dec-12 20:50N 31°49' E 034°39'0 0.0
2017-Dec-12 20:26N 31°49' E 034°39'0 0.0
2017-Dec-12 19:56N 31°49' E 034°39'0 0.0
2017-Dec-12 19:29N 31°49' E 034°39'0 0.0
2017-Dec-12 18:59N 31°49' E 034°39'0 0.0
2017-Dec-12 18:29N 31°49' E 034°39'0 0.0
2017-Dec-12 17:59N 31°49' E 034°39'0 0.0
2017-Dec-12 16:20N 31°49' E 034°39'0 0.0
2017-Dec-12 15:59N 31°49' E 034°39'2 0.1
2017-Dec-11 08:29N 31°51' E 034°38'3 0.7
2017-Dec-11 03:42N 31°49' E 034°35'0 0.1
2017-Dec-11 03:30N 31°49' E 034°35'0 0.0
2017-Dec-11 03:00N 31°49' E 034°35'0 0.0
2017-Dec-11 02:30N 31°49' E 034°35'0 0.0
2017-Dec-11 02:00N 31°49' E 034°35'0 0.0
2017-Dec-11 01:30N 31°49' E 034°35'0 0.0
2017-Dec-11 00:54N 31°49' E 034°35'0 0.0
2017-Dec-11 00:30N 31°49' E 034°35'36 2.0
2017-Dec-10 06:26N 32°03' E 033°57'614.1
2017-Dec-10 05:58N 32°05' E 033°50'1113.6
2017-Dec-10 05:11N 32°03' E 033°37'  
2017-Dec-04 02:21N 31°13' E 032°21'0 0.0
2017-Dec-03 23:09N 31°13' E 032°21'6 2.3
2017-Dec-03 20:22N 31°19' E 032°23'410.3
2017-Dec-03 20:00N 31°23' E 032°24'3 5.9
2017-Dec-03 19:27N 31°26' E 032°26'914.0
2017-Dec-03 18:49N 31°30' E 032°16'514.4
2017-Dec-03 18:30N 31°32' E 032°12'714.6
2017-Dec-03 18:00N 31°37' E 032°06'714.3
2017-Dec-03 17:30N 31°42' E 031°59'712.3
2017-Dec-03 16:56N 31°40' E 031°52'613.1
2017-Dec-03 16:30N 31°36' E 031°47'612.9
2017-Dec-03 16:00N 31°29' E 031°45'  
Track history (hours):
 
Tides and Currents Weather Stations Pressure Air Temp Water Temp Dewpoint Dewpoint Depression Visibility Wind Speed Wind Dir Waves Ship Positions

Asiatic Orchid

Last reported at 2017-Dec-12 21:44 UTC. Time now 2017-Dec-15 12:12 UTC.
Position N 31°49' E 034°39'.

Length 149 m; draft 8.2 m.

Type: Ship (hazmat cat A). MMSI: 565852000.

Date/timePositionNaut miles runAvg speedWind from/ knotsBaromVisibWave heightAir tempDewpointWater temp
2017-Dec-12 21:44N 31°49' E 034°39'0 0.0
2017-Dec-12 20:50N 31°49' E 034°39'0 0.0
2017-Dec-12 20:26N 31°49' E 034°39'0 0.0
2017-Dec-12 19:56N 31°49' E 034°39'0 0.0
2017-Dec-12 19:29N 31°49' E 034°39'0 0.0
2017-Dec-12 18:59N 31°49' E 034°39'0 0.0
2017-Dec-12 18:29N 31°49' E 034°39'0 0.0
2017-Dec-12 17:59N 31°49' E 034°39'0 0.0
2017-Dec-12 16:20N 31°49' E 034°39'0 0.0
2017-Dec-12 15:59N 31°49' E 034°39'2 0.1
2017-Dec-11 08:29N 31°51' E 034°38'3 0.7
2017-Dec-11 03:42N 31°49' E 034°35'0 0.1
2017-Dec-11 03:30N 31°49' E 034°35'0 0.0
2017-Dec-11 03:00N 31°49' E 034°35'0 0.0
2017-Dec-11 02:30N 31°49' E 034°35'0 0.0
2017-Dec-11 02:00N 31°49' E 034°35'0 0.0
2017-Dec-11 01:30N 31°49' E 034°35'0 0.0
2017-Dec-11 00:54N 31°49' E 034°35'0 0.0
2017-Dec-11 00:30N 31°49' E 034°35'36 2.0
2017-Dec-10 06:26N 32°03' E 033°57'614.1
2017-Dec-10 05:58N 32°05' E 033°50'1113.6
2017-Dec-10 05:11N 32°03' E 033°37'  
2017-Dec-04 02:21N 31°13' E 032°21'0 0.0
2017-Dec-03 23:09N 31°13' E 032°21'6 2.3
2017-Dec-03 20:22N 31°19' E 032°23'410.3
2017-Dec-03 20:00N 31°23' E 032°24'3 5.9
2017-Dec-03 19:27N 31°26' E 032°26'914.0
2017-Dec-03 18:49N 31°30' E 032°16'514.4
2017-Dec-03 18:30N 31°32' E 032°12'714.6
2017-Dec-03 18:00N 31°37' E 032°06'714.3
2017-Dec-03 17:30N 31°42' E 031°59'712.3
2017-Dec-03 16:56N 31°40' E 031°52'613.1
2017-Dec-03 16:30N 31°36' E 031°47'612.9
2017-Dec-03 16:00N 31°29' E 031°45'  

Dump ship's entire track history